sensor_id;sensor_type;location;lat;lon;timestamp;pressure;altitude;pressure_sealevel;temperature
68446;BMP280;35789;48.414;12.768;2022-12-29T00:00:01;96990.0;;;
68446;BMP280;35789;48.414;12.768;2022-12-29T00:05:00;96980.0;;;
68446;BMP280;35789;48.414;12.768;2022-12-29T00:10:00;96980.0;;;
68446;BMP280;35789;48.414;12.768;2022-12-29T00:15:00;96970.0;;;
68446;BMP280;35789;48.414;12.768;2022-12-29T00:20:00;96960.0;;;
68446;BMP280;35789;48.414;12.768;2022-12-29T00:25:00;96960.0;;;
68446;BMP280;35789;48.414;12.768;2022-12-29T00:30:00;96960.0;;;
68446;BMP280;35789;48.414;12.768;2022-12-29T00:35:00;96960.0;;;
68446;BMP280;35789;48.414;12.768;2022-12-29T00:40:00;96950.0;;;
68446;BMP280;35789;48.414;12.768;2022-12-29T00:45:00;96950.0;;;
68446;BMP280;35789;48.414;12.768;2022-12-29T00:50:00;96960.0;;;
68446;BMP280;35789;48.414;12.768;2022-12-29T00:55:00;96960.0;;;
68446;BMP280;35789;48.414;12.768;2022-12-29T01:00:00;96950.0;;;
68446;BMP280;35789;48.414;12.768;2022-12-29T01:05:00;96950.0;;;
68446;BMP280;35789;48.414;12.768;2022-12-29T01:10:00;96950.0;;;
68446;BMP280;35789;48.414;12.768;2022-12-29T01:15:00;96960.0;;;
68446;BMP280;35789;48.414;12.768;2022-12-29T01:20:01;96960.0;;;
68446;BMP280;35789;48.414;12.768;2022-12-29T01:25:00;96960.0;;;
68446;BMP280;35789;48.414;12.768;2022-12-29T01:30:00;96950.0;;;
68446;BMP280;35789;48.414;12.768;2022-12-29T01:35:00;96960.0;;;
68446;BMP280;35789;48.414;12.768;2022-12-29T01:40:00;96950.0;;;
68446;BMP280;35789;48.414;12.768;2022-12-29T01:45:02;96960.0;;;
68446;BMP280;35789;48.414;12.768;2022-12-29T01:50:07;96960.0;;;
68446;BMP280;35789;48.414;12.768;2022-12-29T01:55:03;96950.0;;;
68446;BMP280;35789;48.414;12.768;2022-12-29T02:00:05;96940.0;;;
68446;BMP280;35789;48.414;12.768;2022-12-29T02:05:07;96950.0;;;
68446;BMP280;35789;48.414;12.768;2022-12-29T02:10:02;96950.0;;;
68446;BMP280;35789;48.414;12.768;2022-12-29T02:15:04;96940.0;;;
68446;BMP280;35789;48.414;12.768;2022-12-29T02:20:25;96940.0;;;
68446;BMP280;35789;48.414;12.768;2022-12-29T02:30:07;96930.0;;;
68446;BMP280;35789;48.414;12.768;2022-12-29T02:35:11;96920.0;;;
68446;BMP280;35789;48.414;12.768;2022-12-29T02:40:11;96920.0;;;
68446;BMP280;35789;48.414;12.768;2022-12-29T02:45:05;96920.0;;;
68446;BMP280;35789;48.414;12.768;2022-12-29T02:50:06;96920.0;;;
68446;BMP280;35789;48.414;12.768;2022-12-29T02:55:00;96920.0;;;
68446;BMP280;35789;48.414;12.768;2022-12-29T03:00:05;96920.0;;;
68446;BMP280;35789;48.414;12.768;2022-12-29T03:05:21;96910.0;;;
68446;BMP280;35789;48.414;12.768;2022-12-29T03:10:10;96900.0;;;
68446;BMP280;35789;48.414;12.768;2022-12-29T03:15:08;96900.0;;;
68446;BMP280;35789;48.414;12.768;2022-12-29T03:20:07;96900.0;;;
68446;BMP280;35789;48.414;12.768;2022-12-29T03:25:07;96900.0;;;
68446;BMP280;35789;48.414;12.768;2022-12-29T03:30:05;96880.0;;;
68446;BMP280;35789;48.414;12.768;2022-12-29T03:35:02;96890.0;;;
68446;BMP280;35789;48.414;12.768;2022-12-29T03:40:01;96890.0;;;
68446;BMP280;35789;48.414;12.768;2022-12-29T03:45:00;96880.0;;;
68446;BMP280;35789;48.414;12.768;2022-12-29T03:50:00;96880.0;;;
68446;BMP280;35789;48.414;12.768;2022-12-29T03:55:00;96890.0;;;
68446;BMP280;35789;48.414;12.768;2022-12-29T04:00:00;96880.0;;;
68446;BMP280;35789;48.414;12.768;2022-12-29T04:05:00;96880.0;;;
68446;BMP280;35789;48.414;12.768;2022-12-29T04:10:00;96880.0;;;
68446;BMP280;35789;48.414;12.768;2022-12-29T04:15:00;96880.0;;;
68446;BMP280;35789;48.414;12.768;2022-12-29T04:20:00;96880.0;;;
68446;BMP280;35789;48.414;12.768;2022-12-29T04:25:00;96880.0;;;
68446;BMP280;35789;48.414;12.768;2022-12-29T04:30:00;96880.0;;;
68446;BMP280;35789;48.414;12.768;2022-12-29T04:35:00;96880.0;;;
68446;BMP280;35789;48.414;12.768;2022-12-29T04:40:00;96880.0;;;
68446;BMP280;35789;48.414;12.768;2022-12-29T04:45:00;96870.0;;;
68446;BMP280;35789;48.414;12.768;2022-12-29T04:50:00;96880.0;;;
68446;BMP280;35789;48.414;12.768;2022-12-29T04:55:00;96880.0;;;
68446;BMP280;35789;48.414;12.768;2022-12-29T05:00:00;96890.0;;;
68446;BMP280;35789;48.414;12.768;2022-12-29T05:05:00;96890.0;;;
68446;BMP280;35789;48.414;12.768;2022-12-29T05:10:00;96910.0;;;
68446;BMP280;35789;48.414;12.768;2022-12-29T05:15:00;96900.0;;;
68446;BMP280;35789;48.414;12.768;2022-12-29T05:20:00;96880.0;;;
68446;BMP280;35789;48.414;12.768;2022-12-29T05:25:00;96870.0;;;
68446;BMP280;35789;48.414;12.768;2022-12-29T05:30:00;96860.0;;;
68446;BMP280;35789;48.414;12.768;2022-12-29T05:35:00;96860.0;;;
68446;BMP280;35789;48.414;12.768;2022-12-29T05:40:00;96840.0;;;
68446;BMP280;35789;48.414;12.768;2022-12-29T05:45:00;96850.0;;;
68446;BMP280;35789;48.414;12.768;2022-12-29T05:50:00;96840.0;;;
68446;BMP280;35789;48.414;12.768;2022-12-29T05:55:00;96840.0;;;
68446;BMP280;35789;48.414;12.768;2022-12-29T06:00:01;96830.0;;;
68446;BMP280;35789;48.414;12.768;2022-12-29T06:05:00;96840.0;;;
68446;BMP280;35789;48.414;12.768;2022-12-29T06:10:00;96830.0;;;
68446;BMP280;35789;48.414;12.768;2022-12-29T06:15:00;96830.0;;;
68446;BMP280;35789;48.414;12.768;2022-12-29T06:20:00;96830.0;;;
68446;BMP280;35789;48.414;12.768;2022-12-29T06:25:00;96830.0;;;
68446;BMP280;35789;48.414;12.768;2022-12-29T06:30:00;96830.0;;;
68446;BMP280;35789;48.414;12.768;2022-12-29T06:35:01;96830.0;;;
68446;BMP280;35789;48.414;12.768;2022-12-29T06:40:01;96830.0;;;
68446;BMP280;35789;48.414;12.768;2022-12-29T06:45:01;96830.0;;;
68446;BMP280;35789;48.414;12.768;2022-12-29T06:50:01;96830.0;;;
68446;BMP280;35789;48.414;12.768;2022-12-29T06:55:00;96840.0;;;
68446;BMP280;35789;48.414;12.768;2022-12-29T07:00:00;96850.0;;;
68446;BMP280;35789;48.414;12.768;2022-12-29T07:05:00;96850.0;;;
68446;BMP280;35789;48.414;12.768;2022-12-29T07:10:00;96840.0;;;
68446;BMP280;35789;48.414;12.768;2022-12-29T07:15:00;96840.0;;;
68446;BMP280;35789;48.414;12.768;2022-12-29T07:20:00;96850.0;;;
68446;BMP280;35789;48.414;12.768;2022-12-29T07:25:00;96840.0;;;
68446;BMP280;35789;48.414;12.768;2022-12-29T07:30:00;96860.0;;;
68446;BMP280;35789;48.414;12.768;2022-12-29T07:35:00;96870.0;;;
68446;BMP280;35789;48.414;12.768;2022-12-29T07:40:00;96870.0;;;
68446;BMP280;35789;48.414;12.768;2022-12-29T07:45:00;96870.0;;;
68446;BMP280;35789;48.414;12.768;2022-12-29T07:50:00;96870.0;;;
68446;BMP280;35789;48.414;12.768;2022-12-29T07:55:00;96870.0;;;
68446;BMP280;35789;48.414;12.768;2022-12-29T08:00:00;96890.0;;;
68446;BMP280;35789;48.414;12.768;2022-12-29T08:05:00;96880.0;;;
68446;BMP280;35789;48.414;12.768;2022-12-29T08:10:00;96890.0;;;
68446;BMP280;35789;48.414;12.768;2022-12-29T08:15:00;96900.0;;;
68446;BMP280;35789;48.414;12.768;2022-12-29T08:20:01;96900.0;;;
68446;BMP280;35789;48.414;12.768;2022-12-29T08:25:00;96900.0;;;
68446;BMP280;35789;48.414;12.768;2022-12-29T08:30:00;96910.0;;;
68446;BMP280;35789;48.414;12.768;2022-12-29T08:35:00;96910.0;;;
68446;BMP280;35789;48.414;12.768;2022-12-29T08:40:00;96910.0;;;
68446;BMP280;35789;48.414;12.768;2022-12-29T08:45:00;96910.0;;;
68446;BMP280;35789;48.414;12.768;2022-12-29T08:50:00;96890.0;;;
68446;BMP280;35789;48.414;12.768;2022-12-29T08:55:00;96880.0;;;
68446;BMP280;35789;48.414;12.768;2022-12-29T09:00:00;96890.0;;;
68446;BMP280;35789;48.414;12.768;2022-12-29T09:05:00;96880.0;;;
68446;BMP280;35789;48.414;12.768;2022-12-29T09:10:00;96880.0;;;
68446;BMP280;35789;48.414;12.768;2022-12-29T09:15:00;96880.0;;;
68446;BMP280;35789;48.414;12.768;2022-12-29T09:20:00;96890.0;;;
68446;BMP280;35789;48.414;12.768;2022-12-29T09:25:00;96890.0;;;
68446;BMP280;35789;48.414;12.768;2022-12-29T09:30:01;96890.0;;;
68446;BMP280;35789;48.414;12.768;2022-12-29T09:35:01;96890.0;;;
68446;BMP280;35789;48.414;12.768;2022-12-29T09:40:00;96890.0;;;
68446;BMP280;35789;48.414;12.768;2022-12-29T09:45:11;96880.0;;;
68446;BMP280;35789;48.414;12.768;2022-12-29T09:50:04;96870.0;;;
68446;BMP280;35789;48.414;12.768;2022-12-29T09:55:04;96870.0;;;
68446;BMP280;35789;48.414;12.768;2022-12-29T10:00:10;96860.0;;;
68446;BMP280;35789;48.414;12.768;2022-12-29T10:05:00;96850.0;;;
68446;BMP280;35789;48.414;12.768;2022-12-29T10:10:19;96850.0;;;
68446;BMP280;35789;48.414;12.768;2022-12-29T10:15:11;96840.0;;;
68446;BMP280;35789;48.414;12.768;2022-12-29T10:20:24;96840.0;;;
68446;BMP280;35789;48.414;12.768;2022-12-29T10:25:10;96840.0;;;
68446;BMP280;35789;48.414;12.768;2022-12-29T10:30:03;96820.0;;;
68446;BMP280;35789;48.414;12.768;2022-12-29T10:35:09;96810.0;;;
68446;BMP280;35789;48.414;12.768;2022-12-29T10:40:11;96810.0;;;
68446;BMP280;35789;48.414;12.768;2022-12-29T10:45:00;96810.0;;;
68446;BMP280;35789;48.414;12.768;2022-12-29T10:50:02;96810.0;;;
68446;BMP280;35789;48.414;12.768;2022-12-29T10:55:04;96810.0;;;
68446;BMP280;35789;48.414;12.768;2022-12-29T11:00:04;96810.0;;;
68446;BMP280;35789;48.414;12.768;2022-12-29T11:05:06;96800.0;;;
68446;BMP280;35789;48.414;12.768;2022-12-29T11:10:20;96800.0;;;
68446;BMP280;35789;48.414;12.768;2022-12-29T11:15:12;96790.0;;;
68446;BMP280;35789;48.414;12.768;2022-12-29T11:20:29;96780.0;;;
68446;BMP280;35789;48.414;12.768;2022-12-29T11:25:11;96780.0;;;
68446;BMP280;35789;48.414;12.768;2022-12-29T11:30:00;96790.0;;;
68446;BMP280;35789;48.414;12.768;2022-12-29T11:35:04;96790.0;;;
68446;BMP280;35789;48.414;12.768;2022-12-29T11:40:05;96790.0;;;
68446;BMP280;35789;48.414;12.768;2022-12-29T11:45:09;96780.0;;;
68446;BMP280;35789;48.414;12.768;2022-12-29T11:50:04;96780.0;;;
68446;BMP280;35789;48.414;12.768;2022-12-29T11:55:03;96770.0;;;
68446;BMP280;35789;48.414;12.768;2022-12-29T12:00:03;96760.0;;;
68446;BMP280;35789;48.414;12.768;2022-12-29T12:05:11;96760.0;;;
68446;BMP280;35789;48.414;12.768;2022-12-29T12:10:03;96750.0;;;
68446;BMP280;35789;48.414;12.768;2022-12-29T12:15:03;96740.0;;;
68446;BMP280;35789;48.414;12.768;2022-12-29T12:20:14;96740.0;;;
68446;BMP280;35789;48.414;12.768;2022-12-29T12:25:03;96740.0;;;
68446;BMP280;35789;48.414;12.768;2022-12-29T12:30:05;96740.0;;;
68446;BMP280;35789;48.414;12.768;2022-12-29T12:35:01;96730.0;;;
68446;BMP280;35789;48.414;12.768;2022-12-29T12:40:24;96720.0;;;
68446;BMP280;35789;48.414;12.768;2022-12-29T12:45:26;96710.0;;;
68446;BMP280;35789;48.414;12.768;2022-12-29T12:50:15;96710.0;;;
68446;BMP280;35789;48.414;12.768;2022-12-29T12:55:15;96710.0;;;
68446;BMP280;35789;48.414;12.768;2022-12-29T13:00:07;96710.0;;;
68446;BMP280;35789;48.414;12.768;2022-12-29T13:05:20;96710.0;;;
68446;BMP280;35789;48.414;12.768;2022-12-29T13:10:18;96700.0;;;
68446;BMP280;35789;48.414;12.768;2022-12-29T13:15:16;96700.0;;;
68446;BMP280;35789;48.414;12.768;2022-12-29T13:20:18;96700.0;;;
68446;BMP280;35789;48.414;12.768;2022-12-29T13:25:17;96690.0;;;
68446;BMP280;35789;48.414;12.768;2022-12-29T13:30:04;96700.0;;;
68446;BMP280;35789;48.414;12.768;2022-12-29T13:35:13;96700.0;;;
68446;BMP280;35789;48.414;12.768;2022-12-29T13:40:10;96700.0;;;
68446;BMP280;35789;48.414;12.768;2022-12-29T13:45:05;96700.0;;;
68446;BMP280;35789;48.414;12.768;2022-12-29T13:50:05;96700.0;;;
68446;BMP280;35789;48.414;12.768;2022-12-29T13:55:18;96710.0;;;
68446;BMP280;35789;48.414;12.768;2022-12-29T14:00:07;96700.0;;;
68446;BMP280;35789;48.414;12.768;2022-12-29T14:05:04;96710.0;;;
68446;BMP280;35789;48.414;12.768;2022-12-29T14:10:00;96710.0;;;
68446;BMP280;35789;48.414;12.768;2022-12-29T14:15:05;96720.0;;;
68446;BMP280;35789;48.414;12.768;2022-12-29T14:20:01;96730.0;;;
68446;BMP280;35789;48.414;12.768;2022-12-29T14:25:00;96720.0;;;
68446;BMP280;35789;48.414;12.768;2022-12-29T14:30:00;96720.0;;;
68446;BMP280;35789;48.414;12.768;2022-12-29T14:40:08;96720.0;;;
68446;BMP280;35789;48.414;12.768;2022-12-29T14:45:06;96710.0;;;
68446;BMP280;35789;48.414;12.768;2022-12-29T14:50:04;96710.0;;;
68446;BMP280;35789;48.414;12.768;2022-12-29T15:00:15;96720.0;;;
68446;BMP280;35789;48.414;12.768;2022-12-29T15:05:03;96720.0;;;
68446;BMP280;35789;48.414;12.768;2022-12-29T15:10:08;96730.0;;;
68446;BMP280;35789;48.414;12.768;2022-12-29T15:15:00;96720.0;;;
68446;BMP280;35789;48.414;12.768;2022-12-29T15:20:20;96720.0;;;
68446;BMP280;35789;48.414;12.768;2022-12-29T15:25:00;96730.0;;;
68446;BMP280;35789;48.414;12.768;2022-12-29T15:30:04;96720.0;;;
68446;BMP280;35789;48.414;12.768;2022-12-29T15:35:22;96720.0;;;
68446;BMP280;35789;48.414;12.768;2022-12-29T15:40:01;96730.0;;;
68446;BMP280;35789;48.414;12.768;2022-12-29T15:45:03;96730.0;;;
68446;BMP280;35789;48.414;12.768;2022-12-29T15:50:04;96740.0;;;
68446;BMP280;35789;48.414;12.768;2022-12-29T15:55:01;96750.0;;;
68446;BMP280;35789;48.414;12.768;2022-12-29T16:00:01;96750.0;;;
68446;BMP280;35789;48.414;12.768;2022-12-29T16:05:00;96750.0;;;
68446;BMP280;35789;48.414;12.768;2022-12-29T16:10:02;96760.0;;;
68446;BMP280;35789;48.414;12.768;2022-12-29T16:15:03;96760.0;;;
68446;BMP280;35789;48.414;12.768;2022-12-29T16:20:04;96760.0;;;
68446;BMP280;35789;48.414;12.768;2022-12-29T16:25:06;96760.0;;;
68446;BMP280;35789;48.414;12.768;2022-12-29T16:30:06;96770.0;;;
68446;BMP280;35789;48.414;12.768;2022-12-29T16:35:11;96770.0;;;
68446;BMP280;35789;48.414;12.768;2022-12-29T16:40:24;96780.0;;;
68446;BMP280;35789;48.414;12.768;2022-12-29T16:50:12;96770.0;;;
68446;BMP280;35789;48.414;12.768;2022-12-29T16:55:01;96770.0;;;
68446;BMP280;35789;48.414;12.768;2022-12-29T17:00:05;96770.0;;;
68446;BMP280;35789;48.414;12.768;2022-12-29T17:05:00;96770.0;;;
68446;BMP280;35789;48.414;12.768;2022-12-29T17:10:00;96770.0;;;
68446;BMP280;35789;48.414;12.768;2022-12-29T17:15:03;96780.0;;;
68446;BMP280;35789;48.414;12.768;2022-12-29T17:20:14;96790.0;;;
68446;BMP280;35789;48.414;12.768;2022-12-29T17:25:01;96790.0;;;
68446;BMP280;35789;48.414;12.768;2022-12-29T17:30:05;96780.0;;;
68446;BMP280;35789;48.414;12.768;2022-12-29T17:35:00;96790.0;;;
68446;BMP280;35789;48.414;12.768;2022-12-29T17:40:01;96800.0;;;
68446;BMP280;35789;48.414;12.768;2022-12-29T17:45:00;96800.0;;;
68446;BMP280;35789;48.414;12.768;2022-12-29T17:50:00;96800.0;;;
68446;BMP280;35789;48.414;12.768;2022-12-29T17:55:00;96810.0;;;
68446;BMP280;35789;48.414;12.768;2022-12-29T18:00:00;96810.0;;;
68446;BMP280;35789;48.414;12.768;2022-12-29T18:05:00;96810.0;;;
68446;BMP280;35789;48.414;12.768;2022-12-29T18:10:00;96810.0;;;
68446;BMP280;35789;48.414;12.768;2022-12-29T18:15:01;96800.0;;;
68446;BMP280;35789;48.414;12.768;2022-12-29T18:20:00;96790.0;;;
68446;BMP280;35789;48.414;12.768;2022-12-29T18:25:00;96790.0;;;
68446;BMP280;35789;48.414;12.768;2022-12-29T18:30:00;96780.0;;;
68446;BMP280;35789;48.414;12.768;2022-12-29T18:35:00;96780.0;;;
68446;BMP280;35789;48.414;12.768;2022-12-29T18:40:00;96770.0;;;
68446;BMP280;35789;48.414;12.768;2022-12-29T18:45:00;96770.0;;;
68446;BMP280;35789;48.414;12.768;2022-12-29T18:50:00;96770.0;;;
68446;BMP280;35789;48.414;12.768;2022-12-29T18:55:00;96780.0;;;
68446;BMP280;35789;48.414;12.768;2022-12-29T19:00:00;96770.0;;;
68446;BMP280;35789;48.414;12.768;2022-12-29T19:05:01;96780.0;;;
68446;BMP280;35789;48.414;12.768;2022-12-29T19:10:00;96780.0;;;
68446;BMP280;35789;48.414;12.768;2022-12-29T19:15:00;96790.0;;;
68446;BMP280;35789;48.414;12.768;2022-12-29T19:20:01;96790.0;;;
68446;BMP280;35789;48.414;12.768;2022-12-29T19:25:00;96800.0;;;
68446;BMP280;35789;48.414;12.768;2022-12-29T19:30:00;96800.0;;;
68446;BMP280;35789;48.414;12.768;2022-12-29T19:35:00;96790.0;;;
68446;BMP280;35789;48.414;12.768;2022-12-29T19:40:00;96790.0;;;
68446;BMP280;35789;48.414;12.768;2022-12-29T19:45:00;96800.0;;;
68446;BMP280;35789;48.414;12.768;2022-12-29T19:50:02;96800.0;;;
68446;BMP280;35789;48.414;12.768;2022-12-29T19:55:02;96800.0;;;
68446;BMP280;35789;48.414;12.768;2022-12-29T20:00:00;96800.0;;;
68446;BMP280;35789;48.414;12.768;2022-12-29T20:05:00;96800.0;;;
68446;BMP280;35789;48.414;12.768;2022-12-29T20:10:00;96800.0;;;
68446;BMP280;35789;48.414;12.768;2022-12-29T20:15:00;96800.0;;;
68446;BMP280;35789;48.414;12.768;2022-12-29T20:20:01;96800.0;;;
68446;BMP280;35789;48.414;12.768;2022-12-29T20:25:00;96810.0;;;
68446;BMP280;35789;48.414;12.768;2022-12-29T20:30:00;96800.0;;;
68446;BMP280;35789;48.414;12.768;2022-12-29T20:35:00;96800.0;;;
68446;BMP280;35789;48.414;12.768;2022-12-29T20:40:00;96800.0;;;
68446;BMP280;35789;48.414;12.768;2022-12-29T20:45:00;96800.0;;;
68446;BMP280;35789;48.414;12.768;2022-12-29T20:50:00;96800.0;;;
68446;BMP280;35789;48.414;12.768;2022-12-29T20:55:00;96800.0;;;
68446;BMP280;35789;48.414;12.768;2022-12-29T21:00:00;96810.0;;;
68446;BMP280;35789;48.414;12.768;2022-12-29T21:05:00;96810.0;;;
68446;BMP280;35789;48.414;12.768;2022-12-29T21:10:00;96810.0;;;
68446;BMP280;35789;48.414;12.768;2022-12-29T21:15:01;96800.0;;;
68446;BMP280;35789;48.414;12.768;2022-12-29T21:20:00;96810.0;;;
68446;BMP280;35789;48.414;12.768;2022-12-29T21:25:00;96820.0;;;
68446;BMP280;35789;48.414;12.768;2022-12-29T21:30:00;96810.0;;;
68446;BMP280;35789;48.414;12.768;2022-12-29T21:35:00;96810.0;;;
68446;BMP280;35789;48.414;12.768;2022-12-29T21:40:01;96800.0;;;
68446;BMP280;35789;48.414;12.768;2022-12-29T21:45:00;96810.0;;;
68446;BMP280;35789;48.414;12.768;2022-12-29T21:50:00;96800.0;;;
68446;BMP280;35789;48.414;12.768;2022-12-29T21:55:00;96790.0;;;
68446;BMP280;35789;48.414;12.768;2022-12-29T22:00:00;96780.0;;;
68446;BMP280;35789;48.414;12.768;2022-12-29T22:05:01;96780.0;;;
68446;BMP280;35789;48.414;12.768;2022-12-29T22:10:00;96780.0;;;
68446;BMP280;35789;48.414;12.768;2022-12-29T22:15:00;96790.0;;;
68446;BMP280;35789;48.414;12.768;2022-12-29T22:20:00;96790.0;;;
68446;BMP280;35789;48.414;12.768;2022-12-29T22:25:00;96790.0;;;
68446;BMP280;35789;48.414;12.768;2022-12-29T22:30:00;96790.0;;;
68446;BMP280;35789;48.414;12.768;2022-12-29T22:35:00;96790.0;;;
68446;BMP280;35789;48.414;12.768;2022-12-29T22:40:00;96800.0;;;
68446;BMP280;35789;48.414;12.768;2022-12-29T22:45:00;96790.0;;;
68446;BMP280;35789;48.414;12.768;2022-12-29T22:50:01;96790.0;;;
68446;BMP280;35789;48.414;12.768;2022-12-29T22:55:00;96790.0;;;
68446;BMP280;35789;48.414;12.768;2022-12-29T23:00:00;96810.0;;;
68446;BMP280;35789;48.414;12.768;2022-12-29T23:05:00;96800.0;;;
68446;BMP280;35789;48.414;12.768;2022-12-29T23:10:01;96790.0;;;
68446;BMP280;35789;48.414;12.768;2022-12-29T23:15:00;96810.0;;;
68446;BMP280;35789;48.414;12.768;2022-12-29T23:20:00;96810.0;;;
68446;BMP280;35789;48.414;12.768;2022-12-29T23:25:00;96830.0;;;
68446;BMP280;35789;48.414;12.768;2022-12-29T23:30:00;96830.0;;;
68446;BMP280;35789;48.414;12.768;2022-12-29T23:35:00;96830.0;;;
68446;BMP280;35789;48.414;12.768;2022-12-29T23:40:00;96840.0;;;
68446;BMP280;35789;48.414;12.768;2022-12-29T23:45:00;96850.0;;;
68446;BMP280;35789;48.414;12.768;2022-12-29T23:50:00;96860.0;;;
68446;BMP280;35789;48.414;12.768;2022-12-29T23:55:00;96870.0;;;
